Flight Track Log - Related Links

Times and Time Zones

All times are in EDT time to prevent confusion due to time zone crossing. See the CSC8717 flight status page for this flight to view local times or setup timezone preferences in your user account.

Time Position Orientation Groundspeed Altitude Reporting Facility
EDT Latitude Longitude Course Direction KTS MPH feet Rate Location/Type
Fri 08:13:00 PM 18.8723 109.2288 343° North  Level Estimated
Fri 08:14:00 PM 18.9672 109.1981 343° North  Level Estimated
Fri 08:15:00 PM 19.0621 109.1674 343° North  Level Estimated
Fri 08:16:00 PM 19.1569 109.1366 343° North  Level Estimated
Fri 08:17:00 PM 19.2518 109.1058 343° North  Level Estimated
Fri 08:18:00 PM 19.3467 109.0750 343° North  Level Estimated
Fri 08:19:00 PM 19.4415 109.0441 343° North  Level Estimated
Fri 08:20:00 PM 19.5364 109.0132 343° North  Level Estimated
Fri 08:21:00 PM 19.6312 108.9823 343° North  Level Estimated
Fri 08:22:00 PM 19.7261 108.9513 343° North  Level Estimated
Fri 08:23:00 PM 19.8209 108.9203 343° North  Level Estimated
Fri 08:24:00 PM 19.9157 108.8892 343° North  Level Estimated
Fri 08:25:00 PM 20.0106 108.8581 343° North  Level Estimated
Fri 08:26:00 PM 20.1054 108.8270 343° North  Level Estimated
Fri 08:27:00 PM 20.2002 108.7958 343° North  Level Estimated
Fri 08:28:00 PM 20.2950 108.7646 343° North  Level Estimated
Fri 08:29:00 PM 20.3898 108.7334 343° North  Level Estimated
Fri 08:30:00 PM 20.4846 108.7021 343° North  Level Estimated
Fri 08:31:00 PM 20.5794 108.6708 343° North  Level Estimated
Fri 08:32:00 PM 20.6742 108.6394 343° North  Level Estimated
Fri 08:33:00 PM 20.7690 108.6080 343° North  Level Estimated
Fri 08:34:00 PM 20.8638 108.5766 343° North  Level Estimated
Fri 08:35:00 PM 20.9585 108.5451 343° North  Level Estimated
Fri 08:36:00 PM 21.0533 108.5136 343° North  Level Estimated
Fri 08:37:00 PM 21.1481 108.4820 343° North  Level Estimated
Fri 08:38:00 PM 21.2428 108.4504 343° North  Level Estimated
Fri 08:39:00 PM 21.3375 108.4188 343° North  Level Estimated
Fri 08:40:00 PM 21.4323 108.3871 343° North  Level Estimated
Fri 08:41:00 PM 21.5270 108.3554 343° North  Level Estimated
Fri 08:42:00 PM 21.6217 108.3236 343° North  Level Estimated
Fri 08:43:00 PM 21.7165 108.2918 343° North  Level Estimated
Fri 08:44:00 PM 21.8112 108.2599 343° North  Level Estimated
Fri 08:45:00 PM 21.9059 108.2281 343° North  Level Estimated
Fri 08:46:00 PM 22.0006 108.1961 343° North  Level Estimated
Fri 08:47:00 PM 22.0953 108.1641 343° North  Level Estimated
Fri 08:48:00 PM 22.1900 108.1321 343° North  Level Estimated
Fri 08:49:00 PM 22.2847 108.1001 343° North  Level Estimated
Fri 08:50:00 PM 22.3794 108.0680 343° North  Level Estimated
Fri 08:51:00 PM 22.4740 108.0358 343° North  Level Estimated
Fri 08:52:00 PM 22.5687 108.0036 343° North  Level Estimated
Fri 08:53:00 PM 22.6634 107.9714 343° North  Level Estimated
Fri 08:54:00 PM 22.7580 107.9391 343° North  Level Estimated
Fri 08:55:00 PM 22.8527 107.9068 343° North  Level Estimated
Fri 08:56:00 PM 22.9473 107.8744 343° North  Level Estimated
Fri 08:57:00 PM 23.0420 107.8420 343° North  Level Estimated
Fri 08:58:00 PM 23.1366 107.8095 342° North  Level Estimated
Fri 08:59:00 PM 23.2312 107.7770 342° North  Level Estimated
Fri 09:00:00 PM 23.3258 107.7445 342° North  Level Estimated
Fri 09:01:00 PM 23.4204 107.7119 342° North  Level Estimated
Fri 09:02:00 PM 23.5150 107.6792 342° North  Level Estimated
Fri 09:03:00 PM 23.6096 107.6465 342° North  Level Estimated
Fri 09:04:00 PM 23.7042 107.6138 342° North  Level Estimated
Fri 09:05:00 PM 23.7988 107.5810 342° North  Level Estimated
Fri 09:06:00 PM 23.8934 107.5482 342° North  Level Estimated
Fri 09:07:00 PM 23.9879 107.5153 342° North  Level Estimated
Fri 09:08:00 PM 24.0825 107.4824 342° North  Level Estimated
Fri 09:09:00 PM 24.1770 107.4494 342° North  Level Estimated
Fri 09:10:00 PM 24.2716 107.4164 342° North  Level Estimated
Fri 09:11:00 PM 24.3661 107.3833 342° North  Level Estimated
Fri 09:12:00 PM 24.4606 107.3502 342° North  Level Estimated
Fri 09:13:00 PM 24.5552 107.3170 342° North  Level Estimated
Fri 09:14:00 PM 24.6497 107.2838 342° North  Level Estimated
Fri 09:15:00 PM 24.7442 107.2505 342° North  Level Estimated
Fri 09:16:00 PM 24.8387 107.2171 342° North  Level Estimated
Fri 09:17:00 PM 24.9332 107.1838 342° North  Level Estimated
Fri 09:17:11 PM 25.6542 106.7453 North 461 531 32,100  Level FlightAware ADS-B
Fri 09:17:41 PM 25.7174 106.7488 North 467 537 32,300 1,000 Climbing FlightAware ADS-B
Fri 09:18:11 PM 25.7851 106.7527 North 461 531 33,100 1,500 Climbing FlightAware ADS-B
Fri 09:18:41 PM 25.8467 106.7562 North 453 521 33,800 750 Climbing FlightAware ADS-B
Fri 09:19:31 PM 25.9536 106.7623 North 461 531 34,100 225 Climbing FlightAware ADS-B
Fri 09:20:01 PM 26.0198 106.7662 North 464 534 34,100  Level FlightAware ADS-B
Fri 09:20:31 PM 26.0841 106.7699 North 465 535 34,100  Level FlightAware ADS-B
Fri 09:21:01 PM 26.1481 106.7735 North 465 535 34,100  Level FlightAware ADS-B
Fri 09:21:31 PM 26.2141 106.7773 North 466 536 34,100  Level FlightAware ADS-B
Fri 09:22:02 PM 26.2790 106.7811 North 466 536 34,100  Level FlightAware ADS-B
Fri 09:22:32 PM 26.3438 106.7848 North 466 536 34,100  Level FlightAware ADS-B
Fri 09:23:01 PM 26.4070 106.7883 North 467 537 34,100  Level FlightAware ADS-B
Fri 09:23:11 PM 26.4298 106.7873 356° North 467 537 34,100  Level FlightAware ADS-B
Fri 09:23:32 PM 26.4729 106.7787 345° North 468 539 34,100  Level FlightAware ADS-B
Fri 09:24:01 PM 26.5329 106.7499 330° Northwest 469 540 34,100  Level FlightAware ADS-B
Fri 09:24:32 PM 26.5835 106.7046 314° West 469 540 34,100  Level FlightAware ADS-B
Fri 09:25:21 PM 26.6488 106.6118 308° West 468 539 34,100  Level FlightAware ADS-B
Fri 09:25:51 PM 26.6891 106.5529 308° West 466 536 34,100  Level FlightAware ADS-B
Fri 09:26:22 PM 26.7291 106.4940 308° West 466 536 34,100  Level FlightAware ADS-B
Fri 09:26:51 PM 26.7680 106.4367 308° West 465 535 34,100  Level FlightAware ADS-B
Fri 09:27:21 PM 26.8035 106.3844 307° West 465 535 34,100  Level FlightAware ADS-B
Fri 09:27:34 PM 26.8072 106.3788 307° West 465 535 34,100  Level FlightAware ADS-B
Fri 09:28:20 PM 26.8628 106.2968 308° West 464 534 34,100  Level FlightAware ADS-B
Fri 09:28:46 PM 26.8976 106.2452 307° West 464 534 34,100  Level FlightAware ADS-B
Fri 09:29:21 PM 26.9625 106.1488 307° West 465 535 34,100  Level FlightAware ADS-B
Fri 09:29:49 PM 26.9652 106.1448 313° West 466 536 34,100  Level FlightAware ADS-B
Fri 09:32:00 PM 27.1744 106.0817 345° North  Level Estimated
Fri 09:33:00 PM 27.2703 106.0527 345° North  Level Estimated
Fri 09:34:00 PM 27.3661 106.0237 345° North  Level Estimated
Fri 09:35:00 PM 27.4619 105.9947 345° North  Level Estimated
Fri 09:36:00 PM 27.5577 105.9655 345° North  Level Estimated
Fri 09:37:00 PM 27.6535 105.9363 345° North  Level Estimated
Fri 09:38:00 PM 27.7493 105.9071 345° North  Level Estimated
Fri 09:39:00 PM 27.8451 105.8778 345° North  Level Estimated
Fri 09:40:00 PM 27.9409 105.8485 345° North  Level Estimated
Fri 09:41:00 PM 28.0366 105.8191 345° North  Level Estimated
Fri 09:42:00 PM 28.1324 105.7897 345° North  Level Estimated
Fri 09:43:00 PM 28.2282 105.7602 345° North  Level Estimated
Fri 09:44:00 PM 28.3239 105.7307 345° North  Level Estimated
Fri 09:45:00 PM 28.4197 105.7011 345° North  Level Estimated
Fri 09:46:00 PM 28.5154 105.6714 345° North  Level Estimated
Fri 09:47:00 PM 28.6112 105.6417 345° North  Level Estimated
Fri 09:48:00 PM 28.7069 105.6120 345° North  Level Estimated
Fri 09:49:00 PM 28.8026 105.5821 345° North  Level Estimated
Fri 09:50:00 PM 28.8983 105.5523 345° North  Level Estimated
Fri 09:51:00 PM 28.9940 105.5223 345° North  Level Estimated
Fri 09:52:00 PM 29.0897 105.4924 345° North  Level Estimated
Fri 09:53:00 PM 29.1854 105.4623 345° North  Level Estimated
Fri 09:54:00 PM 29.2811 105.4323 345° North  Level Estimated
Fri 09:55:00 PM 29.3768 105.4021 345° North  Level Estimated
Fri 09:56:00 PM 29.4725 105.3719 345° North  Level Estimated
Fri 09:57:00 PM 29.5682 105.3416 345° North  Level Estimated
Fri 09:58:00 PM 29.6638 105.3113 345° North  Level Estimated
Fri 09:59:00 PM 29.7595 105.2810 345° North  Level Estimated
Fri 10:00:00 PM 29.8551 105.2505 345° North  Level Estimated
Fri 10:01:00 PM 29.9508 105.2200 345° North  Level Estimated
Fri 10:02:00 PM 30.0464 105.1895 345° North  Level Estimated
Fri 10:03:00 PM 30.1420 105.1589 345° North  Level Estimated
Fri 10:04:00 PM 30.2377 105.1282 345° North  Level Estimated
Fri 10:05:00 PM 30.3333 105.0975 344° North  Level Estimated
Fri 10:06:00 PM 30.4289 105.0667 344° North  Level Estimated
Fri 10:07:00 PM 30.5245 105.0358 344° North  Level Estimated
Fri 10:08:00 PM 30.6201 105.0049 344° North  Level Estimated
Fri 10:09:00 PM 30.7157 104.9740 344° North  Level Estimated
Fri 10:10:00 PM 30.8112 104.9429 344° North  Level Estimated
Fri 10:11:00 PM 30.9068 104.9118 344° North  Level Estimated
Fri 10:12:00 PM 31.0024 104.8807 344° North  Level Estimated
Fri 10:13:00 PM 31.0979 104.8495 344° North  Level Estimated
Fri 10:14:00 PM 31.1935 104.8182 344° North  Level Estimated
Fri 10:15:00 PM 31.2890 104.7868 344° North  Level Estimated
Fri 10:16:00 PM 31.3845 104.7554 344° North  Level Estimated
Fri 10:17:00 PM 31.4281 104.7411 344° North  Level Estimated
Fri 10:18:00 PM 31.4281 104.7411 North  Level Estimated
Fri 10:19:00 PM 31.4281 104.7411 North  Level Estimated
Fri 10:20:00 PM 31.4281 104.7411 North  Level Estimated
Fri 10:21:00 PM 31.4281 104.7411 North  Level Estimated
Fri 10:22:00 PM 31.4281 104.7411 North  Level Estimated
Fri 10:23:00 PM 31.4281 104.7411 North  Level Estimated

Login

Don't have an account? Register now (free) for customized features, flight alerts, and more!